createdAt,value
2023-04-11T00:01:02.843Z,85.82
2023-04-11T00:03:30.177Z,88.05
2023-04-11T00:05:57.593Z,88.10
2023-04-11T00:08:24.827Z,88.13
2023-04-11T00:10:52.471Z,87.01
2023-04-11T00:13:19.894Z,86.04
2023-04-11T00:15:47.880Z,87.56
2023-04-11T00:18:15.058Z,87.00
2023-04-11T00:20:42.225Z,87.85
2023-04-11T00:23:09.568Z,89.60
2023-04-11T00:25:37.407Z,90.93
2023-04-11T00:28:05.344Z,93.40
2023-04-11T00:30:34.665Z,93.60
2023-04-11T00:33:01.969Z,95.15
2023-04-11T00:35:30.160Z,94.03
2023-04-11T00:37:58.749Z,94.96
2023-04-11T00:40:25.751Z,94.86
2023-04-11T00:42:55.718Z,94.05
2023-04-11T00:45:23.191Z,93.18
2023-04-11T00:47:50.845Z,94.85
2023-04-11T00:50:22.373Z,96.20
2023-04-11T00:52:54.316Z,94.97
2023-04-11T00:55:29.603Z,94.90
2023-04-11T00:57:57.554Z,96.36
2023-04-11T01:00:28.202Z,94.91
2023-04-11T01:02:55.436Z,96.33
2023-04-11T01:05:22.902Z,96.29
2023-04-11T01:07:51.802Z,97.95
2023-04-11T01:10:19.500Z,97.05
2023-04-11T01:12:47.224Z,97.58
2023-04-11T01:15:14.716Z,97.61
2023-04-11T01:17:41.922Z,97.58
2023-04-11T01:20:10.596Z,99.24
2023-04-11T01:22:38.756Z,99.70
2023-04-11T01:25:06.380Z,100.00
2023-04-11T01:27:38.520Z,100.00
2023-04-11T01:30:07.019Z,99.78
2023-04-11T01:32:34.537Z,100.00
2023-04-11T01:35:03.526Z,100.00
2023-04-11T01:37:30.841Z,100.00
2023-04-11T01:39:57.818Z,100.00
2023-04-11T01:42:25.973Z,100.00
2023-04-11T01:44:53.816Z,100.00
2023-04-11T01:47:23.138Z,100.00
2023-04-11T01:49:50.838Z,100.00
2023-04-11T01:52:20.412Z,100.00
2023-04-11T01:54:47.450Z,100.00
2023-04-11T01:57:14.528Z,100.00
2023-04-11T01:59:41.636Z,100.00
2023-04-11T02:02:14.156Z,100.00
2023-04-11T02:04:41.347Z,100.00
2023-04-11T02:07:08.442Z,100.00
2023-04-11T02:09:36.367Z,100.00
2023-04-11T02:12:06.006Z,100.00
2023-04-11T02:14:46.361Z,100.00
2023-04-11T02:17:14.135Z,100.00
2023-04-11T02:19:45.325Z,100.00
2023-04-11T02:22:13.414Z,100.00
2023-04-11T02:24:43.330Z,100.00
2023-04-11T02:27:11.611Z,99.99
2023-04-11T02:29:41.094Z,100.00
2023-04-11T02:32:08.332Z,99.81
2023-04-11T02:34:35.672Z,98.79
2023-04-11T02:37:07.212Z,96.79
2023-04-11T02:39:34.148Z,97.54
2023-04-11T02:42:03.572Z,96.76
2023-04-11T02:44:30.928Z,97.11
2023-04-11T02:46:59.373Z,95.77
2023-04-11T02:49:28.983Z,94.85
2023-04-11T02:51:58.188Z,93.34
2023-04-11T02:54:25.199Z,92.54
2023-04-11T02:56:55.933Z,93.34
2023-04-11T02:59:26.474Z,93.78
2023-04-11T03:02:00.623Z,90.53
2023-04-11T03:04:30.373Z,89.75
2023-04-11T03:06:57.525Z,89.62
2023-04-11T03:09:27.338Z,89.92
2023-04-11T03:11:54.531Z,90.46
2023-04-11T03:14:23.733Z,90.81
2023-04-11T03:16:53.204Z,91.52
2023-04-11T03:19:20.166Z,92.69
2023-04-11T03:21:49.886Z,92.48
2023-04-11T03:24:19.271Z,93.73
2023-04-11T03:26:48.738Z,91.82
2023-04-11T03:29:16.642Z,88.91
2023-04-11T03:31:46.249Z,84.19
2023-04-11T03:34:13.242Z,85.31
2023-04-11T03:36:42.545Z,84.35
2023-04-11T03:39:10.337Z,86.89
2023-04-11T03:41:40.531Z,86.81
2023-04-11T03:44:09.488Z,85.91
2023-04-11T03:46:36.527Z,86.37
2023-04-11T03:49:08.342Z,85.64
2023-04-11T03:51:35.592Z,85.28
2023-04-11T03:54:02.748Z,84.83
2023-04-11T03:56:30.087Z,85.10
2023-04-11T03:58:57.208Z,85.62
2023-04-11T04:01:24.549Z,86.61
2023-04-11T04:03:52.109Z,86.25
2023-04-11T04:06:19.459Z,86.56
2023-04-11T04:08:46.535Z,88.70
2023-04-11T04:11:16.093Z,87.81
2023-04-11T04:13:43.715Z,88.36
2023-04-11T04:16:10.867Z,88.78
2023-04-11T04:18:37.965Z,88.99
2023-04-11T04:21:07.433Z,88.97
2023-04-11T04:23:36.130Z,88.84
2023-04-11T04:26:03.645Z,85.94
2023-04-11T04:28:31.133Z,87.11
2023-04-11T04:31:02.488Z,86.39
2023-04-11T04:33:33.283Z,86.94
2023-04-11T04:36:02.183Z,86.01
2023-04-11T04:38:29.892Z,85.62
2023-04-11T04:41:02.054Z,85.11
2023-04-11T04:43:35.997Z,85.76
2023-04-11T04:46:03.081Z,86.14
2023-04-11T04:48:30.473Z,87.46
2023-04-11T04:50:57.547Z,88.73
2023-04-11T04:53:24.775Z,89.02
2023-04-11T04:55:51.915Z,88.38
2023-04-11T04:58:21.264Z,87.80
2023-04-11T05:00:56.137Z,89.14
2023-04-11T05:03:23.838Z,88.26
2023-04-11T05:05:53.522Z,88.08
2023-04-11T05:08:21.194Z,87.83
2023-04-11T05:10:48.362Z,87.30
2023-04-11T05:13:15.311Z,86.82
2023-04-11T05:15:49.594Z,86.63
2023-04-11T05:18:19.347Z,87.62
2023-04-11T05:20:46.415Z,88.87
2023-04-11T05:23:13.552Z,89.34
2023-04-11T05:25:40.815Z,90.22
2023-04-11T05:28:07.697Z,90.48
2023-04-11T05:30:40.295Z,90.25
2023-04-11T05:33:08.566Z,91.14
2023-04-11T05:35:38.269Z,90.67
2023-04-11T05:38:05.483Z,91.79
2023-04-11T05:40:35.450Z,91.65
2023-04-11T05:43:06.055Z,91.39
2023-04-11T05:45:33.170Z,89.84
2023-04-11T05:48:00.348Z,89.33
2023-04-11T05:50:32.791Z,88.62
2023-04-11T05:53:00.165Z,89.42
2023-04-11T05:55:29.693Z,90.72
2023-04-11T05:57:56.820Z,91.50
2023-04-11T06:00:28.722Z,90.93
2023-04-11T06:02:58.880Z,89.74
2023-04-11T06:05:31.645Z,89.79
2023-04-11T06:07:59.996Z,89.73
2023-04-11T06:10:28.279Z,88.32
2023-04-11T06:12:55.600Z,88.79
2023-04-11T06:15:26.729Z,88.70
2023-04-11T06:17:54.279Z,89.00
2023-04-11T06:20:22.957Z,89.07
2023-04-11T06:22:51.703Z,89.49
2023-04-11T06:25:20.467Z,89.04
2023-04-11T06:27:48.303Z,87.26
2023-04-11T06:30:15.679Z,86.47
2023-04-11T06:32:42.964Z,84.92
2023-04-11T06:35:10.647Z,87.78
2023-04-11T06:37:38.135Z,88.15
2023-04-11T06:40:08.362Z,89.35
2023-04-11T06:42:35.755Z,88.66
2023-04-11T06:45:06.118Z,88.69
2023-04-11T06:47:37.978Z,87.14
2023-04-11T06:50:06.043Z,87.54
2023-04-11T06:52:33.011Z,85.80
2023-04-11T06:55:02.402Z,85.54
2023-04-11T06:57:29.516Z,84.40
2023-04-11T06:59:58.918Z,84.58
2023-04-11T07:02:28.240Z,83.73
2023-04-11T07:04:55.465Z,83.94
2023-04-11T07:07:27.607Z,84.77
2023-04-11T07:09:54.491Z,85.28
2023-04-11T07:12:21.441Z,86.97
2023-04-11T07:14:48.659Z,86.79
2023-04-11T07:17:15.857Z,84.90
2023-04-11T07:19:42.857Z,86.75
2023-04-11T07:22:13.054Z,87.66
2023-04-11T07:24:42.216Z,84.38
2023-04-11T07:27:09.788Z,82.49
2023-04-11T07:29:36.760Z,83.14
2023-04-11T07:32:03.863Z,84.57
2023-04-11T07:34:33.229Z,85.14
2023-04-11T07:37:00.994Z,86.00
2023-04-11T07:39:30.138Z,86.83
2023-04-11T07:41:57.115Z,84.79
2023-04-11T07:44:24.212Z,85.70
2023-04-11T07:46:51.359Z,85.09
2023-04-11T07:49:18.544Z,84.95
2023-04-11T07:51:45.628Z,84.67
2023-04-11T07:54:14.983Z,83.00
2023-04-11T07:56:41.914Z,80.20
2023-04-11T07:59:08.799Z,82.04
2023-04-11T08:01:38.299Z,81.42
2023-04-11T08:04:06.199Z,80.10
2023-04-11T08:06:34.478Z,76.52
2023-04-11T08:09:04.113Z,74.76
2023-04-11T08:11:33.392Z,75.88
2023-04-11T08:14:00.379Z,74.73
2023-04-11T08:16:27.423Z,76.85
2023-04-11T08:18:54.535Z,74.27
2023-04-11T08:21:23.617Z,73.86
2023-04-11T08:23:53.590Z,75.44
2023-04-11T08:26:21.221Z,72.31
2023-04-11T08:28:50.764Z,75.86
2023-04-11T08:31:19.954Z,76.05
2023-04-11T08:33:50.153Z,75.15
2023-04-11T08:36:17.243Z,77.07
2023-04-11T08:38:46.643Z,78.58
2023-04-11T08:41:14.509Z,78.94
2023-04-11T08:43:41.490Z,79.74
2023-04-11T08:46:12.884Z,81.05
2023-04-11T08:48:39.991Z,82.11
2023-04-11T08:51:07.560Z,80.52
2023-04-11T08:53:36.898Z,80.55
2023-04-11T08:56:04.431Z,80.99
2023-04-11T08:58:34.061Z,81.71
2023-04-11T09:01:29.003Z,81.21
2023-04-11T09:04:00.566Z,77.52
2023-04-11T09:06:34.029Z,73.27
2023-04-11T09:09:06.894Z,65.63
2023-04-11T09:11:58.919Z,60.70
2023-04-11T09:14:27.100Z,56.37
2023-04-11T09:17:13.784Z,55.82
2023-04-11T09:19:49.215Z,57.83
2023-04-11T09:22:16.620Z,60.24
2023-04-11T09:24:46.705Z,63.78
2023-04-11T09:27:19.765Z,64.93
2023-04-11T09:29:48.893Z,64.29
2023-04-11T09:32:35.281Z,64.95
2023-04-11T09:35:24.157Z,67.51
2023-04-11T09:37:59.101Z,70.11
2023-04-11T09:40:42.608Z,72.10
2023-04-11T09:43:09.707Z,74.01
2023-04-11T09:45:47.778Z,75.85
2023-04-11T09:48:22.140Z,77.45
2023-04-11T09:50:54.383Z,76.49
2023-04-11T09:53:23.536Z,76.21
2023-04-11T09:55:50.933Z,79.84
2023-04-11T09:58:19.240Z,80.47
2023-04-11T10:00:48.440Z,79.11
2023-04-11T10:03:16.692Z,80.59
2023-04-11T10:05:48.919Z,77.94
2023-04-11T10:08:32.686Z,77.85
2023-04-11T10:11:00.846Z,78.88
2023-04-11T10:13:46.608Z,78.19
2023-04-11T10:16:24.251Z,81.53
2023-04-11T10:18:53.899Z,81.65
2023-04-11T10:21:39.834Z,83.04
2023-04-11T10:24:11.238Z,82.75
2023-04-11T10:27:06.272Z,83.86
2023-04-11T10:29:33.246Z,85.89
2023-04-11T10:32:20.429Z,86.02
2023-04-11T10:34:50.142Z,85.61
2023-04-11T10:37:34.120Z,86.43
2023-04-11T10:40:05.775Z,86.01
2023-04-11T10:42:36.273Z,87.71
2023-04-11T10:45:30.851Z,87.53
2023-04-11T10:48:05.959Z,87.93
2023-04-11T10:50:37.611Z,86.15
2023-04-11T10:53:09.993Z,86.67
2023-04-11T10:55:48.632Z,86.12
2023-04-11T10:58:21.660Z,86.09
2023-04-11T11:00:51.811Z,86.43
2023-04-11T11:03:31.642Z,85.95
2023-04-11T11:06:07.275Z,85.21
2023-04-11T11:08:41.892Z,85.01
2023-04-11T11:11:13.677Z,83.80
2023-04-11T11:13:53.152Z,84.18
2023-04-11T11:16:23.721Z,82.96
2023-04-11T11:19:02.060Z,83.41
2023-04-11T11:21:34.658Z,82.28
2023-04-11T11:24:03.837Z,81.08
2023-04-11T11:26:43.098Z,78.76
2023-04-11T11:29:11.380Z,78.08
2023-04-11T11:31:40.046Z,76.86
2023-04-11T11:34:22.863Z,72.90
2023-04-11T11:36:53.468Z,70.53
2023-04-11T11:39:24.145Z,68.84
2023-04-11T11:41:52.325Z,66.46
2023-04-11T11:44:30.096Z,65.09
2023-04-11T11:47:16.238Z,61.24
2023-04-11T11:49:47.873Z,60.00
2023-04-11T11:52:38.047Z,63.34
2023-04-11T11:55:19.086Z,62.73
2023-04-11T11:57:49.766Z,62.69
2023-04-11T12:00:26.237Z,62.83
2023-04-11T12:03:00.784Z,63.30
2023-04-11T12:05:31.305Z,64.83
2023-04-11T12:08:01.215Z,67.58
2023-04-11T12:10:42.780Z,70.14
2023-04-11T12:13:27.189Z,71.43
2023-04-11T12:16:01.405Z,75.32
2023-04-11T12:18:28.779Z,74.89
2023-04-11T12:20:56.254Z,75.76
2023-04-11T12:23:23.334Z,77.73
2023-04-11T12:25:50.587Z,78.45
2023-04-11T12:28:19.801Z,78.53
2023-04-11T12:30:47.201Z,78.96
2023-04-11T12:33:14.158Z,78.88
2023-04-11T12:35:44.097Z,78.25
2023-04-11T12:38:17.838Z,76.56
2023-04-11T12:40:46.340Z,77.06
2023-04-11T12:43:18.426Z,75.71
2023-04-11T12:45:47.864Z,73.02
2023-04-11T12:48:14.879Z,69.79
2023-04-11T12:50:42.048Z,68.27
2023-04-11T12:53:09.098Z,67.49
2023-04-11T12:55:36.313Z,64.36
2023-04-11T12:58:06.832Z,62.27
2023-04-11T13:00:36.326Z,59.32
2023-04-11T13:03:06.082Z,56.67
2023-04-11T13:05:37.239Z,57.02
2023-04-11T13:08:06.592Z,55.55
2023-04-11T13:10:33.931Z,55.06
2023-04-11T13:13:15.401Z,54.01
2023-04-11T13:15:46.541Z,52.60
2023-04-11T13:18:15.940Z,55.30
2023-04-11T13:20:43.333Z,58.29
2023-04-11T13:23:11.509Z,60.38
2023-04-11T13:25:38.638Z,62.18
2023-04-11T13:28:05.663Z,63.21
2023-04-11T13:30:35.732Z,61.85
2023-04-11T13:33:05.414Z,63.56
2023-04-11T13:35:32.414Z,64.90
2023-04-11T13:38:03.418Z,65.43
2023-04-11T13:40:31.088Z,66.68
2023-04-11T13:42:58.136Z,67.10
2023-04-11T13:45:27.599Z,66.56
2023-04-11T13:47:54.653Z,66.80
2023-04-11T13:50:21.600Z,66.41
2023-04-11T13:52:51.417Z,67.53
2023-04-11T13:55:18.571Z,66.54
2023-04-11T13:57:45.574Z,65.80
2023-04-11T14:00:14.431Z,65.22
2023-04-11T14:02:42.445Z,65.42
2023-04-11T14:05:13.077Z,64.66
2023-04-11T14:07:41.162Z,63.75
2023-04-11T14:10:09.017Z,64.74
2023-04-11T14:12:36.729Z,64.47
2023-04-11T14:15:07.850Z,63.81
2023-04-11T14:17:34.895Z,65.83
2023-04-11T14:20:06.987Z,67.60
2023-04-11T14:22:34.737Z,68.21
2023-04-11T14:25:01.895Z,66.17
2023-04-11T14:27:31.918Z,65.03
2023-04-11T14:30:01.436Z,62.33
2023-04-11T14:32:31.561Z,62.31
2023-04-11T14:35:00.724Z,61.05
2023-04-11T14:37:28.911Z,61.37
2023-04-11T14:39:58.649Z,61.75
2023-04-11T14:42:26.074Z,60.58
2023-04-11T14:44:55.440Z,62.06
2023-04-11T14:47:23.012Z,63.55
2023-04-11T14:49:50.501Z,63.57
2023-04-11T14:52:20.320Z,64.51
2023-04-11T14:54:47.485Z,68.78
2023-04-11T14:57:19.258Z,70.55
2023-04-11T14:59:46.667Z,71.25
2023-04-11T15:02:14.975Z,72.40
2023-04-11T15:04:44.488Z,73.42
2023-04-11T15:07:13.735Z,75.52
2023-04-11T15:09:41.002Z,75.53
2023-04-11T15:12:08.194Z,74.88
2023-04-11T15:14:35.315Z,74.94
2023-04-11T15:17:06.564Z,75.26
2023-04-11T15:19:36.705Z,74.75
2023-04-11T15:22:04.521Z,74.05
2023-04-11T15:24:31.844Z,72.18
2023-04-11T15:26:59.073Z,69.35
2023-04-11T15:29:28.322Z,69.05
2023-04-11T15:31:55.626Z,68.07
2023-04-11T15:34:23.406Z,67.21
2023-04-11T15:36:54.339Z,68.40
2023-04-11T15:39:23.775Z,69.76
2023-04-11T15:41:50.814Z,70.83
2023-04-11T15:44:18.376Z,69.00
2023-04-11T15:46:46.929Z,71.31
2023-04-11T15:49:15.873Z,72.20
2023-04-11T15:51:46.622Z,72.05
2023-04-11T15:54:13.874Z,75.09
2023-04-11T15:56:41.156Z,73.71
2023-04-11T15:59:11.642Z,74.30
2023-04-11T16:01:40.437Z,74.95
2023-04-11T16:04:09.581Z,73.01
2023-04-11T16:06:37.127Z,72.77
2023-04-11T16:09:04.472Z,73.15
2023-04-11T16:11:31.746Z,71.67
2023-04-11T16:13:59.799Z,71.81
2023-04-11T16:16:26.985Z,72.39
2023-04-11T16:18:59.429Z,72.04
2023-04-11T16:21:28.822Z,72.83
2023-04-11T16:23:56.703Z,73.82
2023-04-11T16:26:24.047Z,74.32
2023-04-11T16:28:51.383Z,76.17
2023-04-11T16:31:24.267Z,74.23
2023-04-11T16:33:56.746Z,75.15
2023-04-11T16:36:24.296Z,74.27
2023-04-11T16:38:51.229Z,74.34
2023-04-11T16:41:21.694Z,73.86
2023-04-11T16:43:51.114Z,74.92
2023-04-11T16:46:18.141Z,74.55
2023-04-11T16:48:45.502Z,76.24
2023-04-11T16:51:13.410Z,76.34
2023-04-11T16:53:41.150Z,73.96
2023-04-11T16:56:10.630Z,74.18
2023-04-11T16:58:37.793Z,74.67
2023-04-11T17:01:09.796Z,74.24
2023-04-11T17:03:43.437Z,73.89
2023-04-11T17:06:16.883Z,74.78
2023-04-11T17:09:02.668Z,75.14
2023-04-11T17:11:37.389Z,75.60
2023-04-11T17:14:08.743Z,76.85
2023-04-11T17:16:37.407Z,76.37
2023-04-11T17:19:09.083Z,75.51
2023-04-11T17:21:53.267Z,75.20
2023-04-11T17:24:30.424Z,75.52
2023-04-11T17:27:01.353Z,76.10
2023-04-11T17:29:37.615Z,76.03
2023-04-11T17:32:17.637Z,75.36
2023-04-11T17:34:53.542Z,74.71
2023-04-11T17:37:48.369Z,74.29
2023-04-11T17:40:24.808Z,74.64
2023-04-11T17:43:01.041Z,74.43
2023-04-11T17:45:50.084Z,74.61
2023-04-11T17:48:23.035Z,74.44
2023-04-11T17:50:54.075Z,74.76
2023-04-11T17:53:35.171Z,75.66
2023-04-11T17:56:07.148Z,77.81
2023-04-11T17:58:48.372Z,77.58
2023-04-11T18:01:16.189Z,78.89
2023-04-11T18:03:47.442Z,78.02
2023-04-11T18:06:15.362Z,78.11
2023-04-11T18:08:52.105Z,77.84
2023-04-11T18:11:24.245Z,75.78
2023-04-11T18:13:54.059Z,78.03
2023-04-11T18:16:21.855Z,78.23
2023-04-11T18:18:52.043Z,77.53
2023-04-11T18:21:26.474Z,78.76
2023-04-11T18:23:57.172Z,76.52
2023-04-11T18:26:27.330Z,77.14
2023-04-11T18:29:00.407Z,76.10
2023-04-11T18:31:27.512Z,76.17
2023-04-11T18:33:56.552Z,76.70
2023-04-11T18:36:25.208Z,78.02
2023-04-11T18:38:53.304Z,80.06
2023-04-11T18:42:07.693Z,79.98
2023-04-11T18:44:39.749Z,80.12
2023-04-11T18:47:13.831Z,80.17
2023-04-11T18:49:48.604Z,80.88
2023-04-11T18:52:19.421Z,80.54
2023-04-11T18:54:47.690Z,80.03
2023-04-11T18:57:33.618Z,80.56
2023-04-11T19:00:24.613Z,80.76
2023-04-11T19:02:53.424Z,81.96
2023-04-11T19:05:25.531Z,81.63
2023-04-11T19:07:56.929Z,81.24
2023-04-11T19:10:26.132Z,80.72
2023-04-11T19:12:54.304Z,81.69
2023-04-11T19:15:24.670Z,82.22
2023-04-11T19:17:51.855Z,81.49
2023-04-11T19:20:21.283Z,82.20
2023-04-11T19:22:50.770Z,81.71
2023-04-11T19:25:18.218Z,82.16
2023-04-11T19:27:46.593Z,82.07
2023-04-11T19:30:18.600Z,82.49
2023-04-11T19:32:48.254Z,83.36
2023-04-11T19:35:21.510Z,83.17
2023-04-11T19:37:49.449Z,82.81
2023-04-11T19:40:18.738Z,82.69
2023-04-11T19:42:49.384Z,82.05
2023-04-11T19:45:20.188Z,81.84
2023-04-11T19:47:48.069Z,83.52
2023-04-11T19:50:15.772Z,82.44
2023-04-11T19:52:43.812Z,83.55
2023-04-11T19:55:14.317Z,83.21
2023-04-11T19:57:43.754Z,82.63
2023-04-11T20:00:16.428Z,82.36
2023-04-11T20:02:48.813Z,84.56
2023-04-11T20:05:19.796Z,85.39
2023-04-11T20:07:49.679Z,86.34
2023-04-11T20:10:19.169Z,87.14
2023-04-11T20:12:46.139Z,88.35
2023-04-11T20:15:15.759Z,89.17
2023-04-11T20:17:46.877Z,89.21
2023-04-11T20:20:17.290Z,88.66
2023-04-11T20:22:44.915Z,88.36
2023-04-11T20:25:14.705Z,89.07
2023-04-11T20:27:43.756Z,87.95
2023-04-11T20:30:12.160Z,88.44
2023-04-11T20:32:40.496Z,88.49
2023-04-11T20:35:16.627Z,90.89
2023-04-11T20:37:43.902Z,91.81
2023-04-11T20:40:13.045Z,92.49
2023-04-11T20:42:45.391Z,92.38
2023-04-11T20:45:17.950Z,92.33
2023-04-11T20:47:50.262Z,92.88
2023-04-11T20:50:19.359Z,93.24
2023-04-11T20:52:53.195Z,92.32
2023-04-11T20:55:22.624Z,92.65
2023-04-11T20:57:52.122Z,92.82
2023-04-11T21:00:19.980Z,91.90
2023-04-11T21:02:50.378Z,91.63
2023-04-11T21:05:24.915Z,90.92
2023-04-11T21:07:55.421Z,90.68
2023-04-11T21:10:25.042Z,91.35
2023-04-11T21:12:53.700Z,92.59
2023-04-11T21:15:21.737Z,91.77
2023-04-11T21:17:53.614Z,91.18
2023-04-11T21:20:23.449Z,91.30
2023-04-11T21:22:55.930Z,90.87
2023-04-11T21:25:24.166Z,90.98
2023-04-11T21:27:53.773Z,91.45
2023-04-11T21:30:20.974Z,91.44
2023-04-11T21:32:48.434Z,91.30
2023-04-11T21:35:15.869Z,91.39
2023-04-11T21:37:42.879Z,90.62
2023-04-11T21:40:14.375Z,91.65
2023-04-11T21:42:41.427Z,91.56
2023-04-11T21:45:19.661Z,90.86
2023-04-11T21:47:46.891Z,90.69
2023-04-11T21:50:14.704Z,90.92
2023-04-11T21:52:41.869Z,91.74
2023-04-11T21:55:10.031Z,91.05
2023-04-11T21:57:37.417Z,91.27
2023-04-11T22:00:06.367Z,91.10
2023-04-11T22:02:35.739Z,91.96
2023-04-11T22:05:10.047Z,91.32
2023-04-11T22:07:46.336Z,91.38
2023-04-11T22:10:22.922Z,92.04
2023-04-11T22:12:53.857Z,92.46
2023-04-11T22:15:21.469Z,91.59
2023-04-11T22:17:58.816Z,90.74
2023-04-11T22:20:26.267Z,91.72
2023-04-11T22:22:53.428Z,91.28
2023-04-11T22:25:22.743Z,92.26
2023-04-11T22:27:54.805Z,92.55
2023-04-11T22:30:24.980Z,91.96
2023-04-11T22:32:56.171Z,91.93
2023-04-11T22:35:25.903Z,92.35
2023-04-11T22:37:58.155Z,93.25
2023-04-11T22:40:26.692Z,93.34
2023-04-11T22:42:56.446Z,92.16
2023-04-11T22:45:24.492Z,93.14
2023-04-11T22:48:00.091Z,93.31
2023-04-11T22:50:27.852Z,93.00
2023-04-11T22:52:55.058Z,93.05
2023-04-11T22:55:25.117Z,93.96
2023-04-11T22:57:52.263Z,94.79
2023-04-11T23:00:20.146Z,95.20
2023-04-11T23:02:47.343Z,95.03
2023-04-11T23:05:14.768Z,94.46
2023-04-11T23:07:41.983Z,94.59
2023-04-11T23:10:15.706Z,95.28
2023-04-11T23:12:45.211Z,95.33
2023-04-11T23:15:12.982Z,94.89
2023-04-11T23:17:40.201Z,94.31
2023-04-11T23:20:13.994Z,94.37
2023-04-11T23:22:42.620Z,93.90
2023-04-11T23:25:15.959Z,93.15
2023-04-11T23:27:47.585Z,93.13
2023-04-11T23:30:17.534Z,93.87
2023-04-11T23:32:44.691Z,94.14
2023-04-11T23:35:17.050Z,95.36
2023-04-11T23:37:47.254Z,95.42
2023-04-11T23:40:16.949Z,95.75
2023-04-11T23:42:44.348Z,94.38
2023-04-11T23:45:12.887Z,94.10
2023-04-11T23:47:45.332Z,93.28
2023-04-11T23:50:14.696Z,93.14
2023-04-11T23:52:41.709Z,93.31
2023-04-11T23:55:09.493Z,93.97
2023-04-11T23:57:36.581Z,95.89
